createdAt,value
2022-10-11T00:00:19.304Z,101603.78
2022-10-11T00:02:46.507Z,101613.72
2022-10-11T00:05:13.821Z,101609.19
2022-10-11T00:07:41.170Z,101602.94
2022-10-11T00:10:09.837Z,101601.94
2022-10-11T00:12:37.325Z,101601.19
2022-10-11T00:15:06.273Z,101603.91
2022-10-11T00:17:34.386Z,101601.19
2022-10-11T00:20:01.584Z,101600.34
2022-10-11T00:22:28.920Z,101605.75
2022-10-11T00:24:56.223Z,101591.41
2022-10-11T00:27:23.537Z,101596.78
2022-10-11T00:29:50.854Z,101594.09
2022-10-11T00:32:18.212Z,101598.50
2022-10-11T00:34:45.850Z,101595.09
2022-10-11T00:37:13.050Z,101592.41
2022-10-11T00:39:40.321Z,101591.41
2022-10-11T00:42:13.447Z,101596.78
2022-10-11T00:44:45.968Z,101585.28
2022-10-11T00:47:25.484Z,101591.53
2022-10-11T00:50:01.670Z,101589.84
2022-10-11T00:52:40.604Z,101588.00
2022-10-11T00:55:14.912Z,101593.41
2022-10-11T00:57:47.547Z,101583.56
2022-10-11T01:00:16.564Z,101583.56
2022-10-11T01:02:43.936Z,101580.88
2022-10-11T01:05:30.477Z,101588.09
2022-10-11T01:08:00.237Z,101586.41
2022-10-11T01:10:28.385Z,101590.81
2022-10-11T01:13:22.847Z,101581.00
2022-10-11T01:16:01.586Z,101581.88
2022-10-11T01:18:52.964Z,101582.88
2022-10-11T01:21:47.397Z,101584.56
2022-10-11T01:24:56.098Z,101581.88
2022-10-11T01:27:44.265Z,101582.00
2022-10-11T01:30:26.848Z,101576.63
2022-10-11T01:32:56.833Z,101575.63
2022-10-11T01:35:52.311Z,101582.00
2022-10-11T01:38:50.636Z,101578.47
2022-10-11T01:41:43.615Z,101568.63
2022-10-11T01:44:12.652Z,101566.81
2022-10-11T01:46:41.027Z,101566.81
2022-10-11T01:49:08.891Z,101560.41
2022-10-11T01:51:39.263Z,101561.41
2022-10-11T01:54:09.134Z,101554.28
2022-10-11T01:57:12.644Z,101562.38
2022-10-11T01:59:59.366Z,101557.00
2022-10-11T02:03:03.989Z,101562.38
2022-10-11T02:05:40.405Z,101552.59
2022-10-11T02:08:14.156Z,101564.22
2022-10-11T02:10:49.758Z,101556.13
2022-10-11T02:13:23.125Z,101556.13
2022-10-11T02:15:52.320Z,101552.59
2022-10-11T02:18:25.097Z,101560.69
2022-10-11T02:20:53.816Z,101561.53
2022-10-11T02:23:27.988Z,101559.84
2022-10-11T02:25:57.752Z,101558.00
2022-10-11T02:28:31.691Z,101555.28
2022-10-11T02:31:01.517Z,101551.75
2022-10-11T02:33:38.765Z,101559.84
2022-10-11T02:36:16.282Z,101550.03
2022-10-11T02:38:52.663Z,101549.03
2022-10-11T02:41:27.778Z,101544.63
2022-10-11T02:44:13.205Z,101547.34
2022-10-11T02:46:42.013Z,101544.63
2022-10-11T02:49:10.316Z,101541.22
2022-10-11T02:51:37.552Z,101553.59
2022-10-11T02:54:04.959Z,101541.94
2022-10-11T02:56:32.189Z,101544.75
2022-10-11T02:58:59.415Z,101542.91
2022-10-11T03:01:26.729Z,101535.81
2022-10-11T03:03:53.991Z,101542.91
2022-10-11T03:06:21.232Z,101547.44
2022-10-11T03:08:48.477Z,101542.06
2022-10-11T03:11:15.659Z,101540.22
2022-10-11T03:13:42.875Z,101539.34
2022-10-11T03:16:10.511Z,101536.66
2022-10-11T03:18:38.003Z,101535.81
2022-10-11T03:21:05.320Z,101538.50
2022-10-11T03:26:25.265Z,101542.91
2022-10-11T03:28:52.590Z,101541.22
2022-10-11T03:31:20.680Z,101537.81
2022-10-11T03:33:48.101Z,101544.91
2022-10-11T03:36:15.922Z,101544.06
2022-10-11T03:38:43.204Z,101539.50
2022-10-11T03:41:10.450Z,101547.59
2022-10-11T03:43:37.709Z,101553.00
2022-10-11T03:46:05.161Z,101554.84
2022-10-11T03:48:33.304Z,101552.25
2022-10-11T03:51:00.619Z,101552.25
2022-10-11T03:53:27.944Z,101551.41
2022-10-11T03:55:56.218Z,101547.75
2022-10-11T03:58:24.057Z,101550.56
2022-10-11T04:00:52.817Z,101552.25
2022-10-11T04:03:20.060Z,101546.88
2022-10-11T04:05:47.403Z,101546.03
2022-10-11T04:08:14.704Z,101546.03
2022-10-11T04:10:42.064Z,101546.88
2022-10-11T04:13:11.287Z,101553.25
2022-10-11T04:15:39.321Z,101547.88
2022-10-11T04:18:07.137Z,101550.56
2022-10-11T04:20:34.692Z,101550.56
2022-10-11T04:23:02.257Z,101556.81
2022-10-11T04:25:29.573Z,101547.88
2022-10-11T04:27:56.898Z,101544.31
2022-10-11T04:30:24.412Z,101548.72
2022-10-11T04:32:51.666Z,101556.97
2022-10-11T04:35:18.999Z,101550.72
2022-10-11T04:37:46.978Z,101554.25
2022-10-11T04:40:14.365Z,101552.41
2022-10-11T04:42:41.700Z,101545.16
2022-10-11T04:45:09.473Z,101550.56
2022-10-11T04:47:36.870Z,101556.09
2022-10-11T04:50:04.622Z,101557.97
2022-10-11T04:52:32.072Z,101563.34
2022-10-11T04:54:59.341Z,101557.09
2022-10-11T04:57:26.576Z,101558.81
2022-10-11T04:59:53.926Z,101566.06
2022-10-11T05:02:21.402Z,101558.91
2022-10-11T05:04:48.768Z,101563.34
2022-10-11T05:07:15.978Z,101564.31
2022-10-11T05:09:43.292Z,101568.75
2022-10-11T05:12:10.572Z,101567.91
2022-10-11T05:14:37.884Z,101575.09
2022-10-11T05:17:05.338Z,101573.41
2022-10-11T05:19:32.631Z,101573.41
2022-10-11T05:21:59.864Z,101572.41
2022-10-11T05:24:27.076Z,101578.81
2022-10-11T05:26:54.401Z,101577.97
2022-10-11T05:29:21.654Z,101577.09
2022-10-11T05:31:48.890Z,101581.50
2022-10-11T05:34:16.294Z,101578.94
2022-10-11T05:36:43.570Z,101584.34
2022-10-11T05:39:10.827Z,101594.16
2022-10-11T05:41:38.067Z,101585.34
2022-10-11T05:44:07.858Z,101597.00
2022-10-11T05:46:35.183Z,101593.44
2022-10-11T05:49:02.609Z,101591.59
2022-10-11T05:51:29.823Z,101599.69
2022-10-11T05:53:57.154Z,101596.13
2022-10-11T05:56:25.982Z,101592.56
2022-10-11T05:58:54.967Z,101598.84
2022-10-11T06:01:26.927Z,101595.25
2022-10-11T06:03:54.561Z,101604.34
2022-10-11T06:06:22.294Z,101603.34
2022-10-11T06:08:50.006Z,101608.75
2022-10-11T06:11:26.091Z,101607.78
2022-10-11T06:14:00.718Z,101609.63
2022-10-11T06:16:28.133Z,101615.03
2022-10-11T06:18:56.936Z,101614.88
2022-10-11T06:21:24.983Z,101615.88
2022-10-11T06:23:56.863Z,101615.72
2022-10-11T06:26:27.670Z,101619.28
2022-10-11T06:28:54.913Z,101621.13
2022-10-11T06:31:22.545Z,101622.97
2022-10-11T06:33:49.818Z,101618.69
2022-10-11T06:36:18.709Z,101629.38
2022-10-11T06:38:46.130Z,101631.22
2022-10-11T06:41:17.326Z,101629.38
2022-10-11T06:43:45.173Z,101632.91
2022-10-11T06:46:12.564Z,101636.47
2022-10-11T06:48:44.112Z,101639.16
2022-10-11T06:51:13.278Z,101635.47
2022-10-11T06:53:40.872Z,101625.81
2022-10-11T06:56:10.934Z,101633.78
2022-10-11T06:58:39.684Z,101634.63
2022-10-11T07:01:10.674Z,101638.16
2022-10-11T07:03:38.222Z,101638.16
2022-10-11T07:06:09.119Z,101632.78
2022-10-11T07:08:37.536Z,101641.72
2022-10-11T07:11:14.018Z,101640.88
2022-10-11T07:13:41.948Z,101647.13
2022-10-11T07:16:12.475Z,101646.25
2022-10-11T07:18:40.115Z,101640.16
2022-10-11T07:21:11.226Z,101638.56
2022-10-11T07:23:38.630Z,101650.22
2022-10-11T07:26:07.537Z,101655.59
2022-10-11T07:28:36.964Z,101654.63
2022-10-11T07:31:13.216Z,101650.09
2022-10-11T07:33:40.583Z,101650.09
2022-10-11T07:36:09.296Z,101649.09
2022-10-11T07:38:39.965Z,101662.44
2022-10-11T07:41:07.890Z,101661.47
2022-10-11T07:43:36.290Z,101668.59
2022-10-11T07:46:05.224Z,101657.78
2022-10-11T07:48:35.160Z,101657.66
2022-10-11T07:51:23.664Z,101660.34
2022-10-11T07:53:56.017Z,101658.50
2022-10-11T07:56:26.849Z,101662.19
2022-10-11T07:58:57.385Z,101669.28
2022-10-11T08:01:26.690Z,101665.59
2022-10-11T08:03:54.717Z,101659.25
2022-10-11T08:06:24.477Z,101658.25
2022-10-11T08:08:51.858Z,101658.25
2022-10-11T08:11:23.825Z,101659.94
2022-10-11T08:13:51.373Z,101658.25
2022-10-11T08:16:19.230Z,101666.09
2022-10-11T08:18:46.750Z,101666.09
2022-10-11T08:21:16.633Z,101666.94
2022-10-11T08:23:44.183Z,101663.38
2022-10-11T08:26:12.362Z,101669.63
2022-10-11T08:28:39.818Z,101662.38
2022-10-11T08:31:11.790Z,101668.63
2022-10-11T08:33:39.053Z,101669.47
2022-10-11T08:36:07.870Z,101666.78
2022-10-11T08:38:39.760Z,101671.19
2022-10-11T08:41:36.089Z,101667.53
2022-10-11T08:44:22.031Z,101670.06
2022-10-11T08:46:58.196Z,101662.97
2022-10-11T08:49:31.539Z,101668.38
2022-10-11T08:52:11.940Z,101674.63
2022-10-11T08:54:54.044Z,101673.63
2022-10-11T08:57:24.076Z,101672.78
2022-10-11T08:59:56.019Z,101671.66
2022-10-11T09:02:55.549Z,101669.94
2022-10-11T09:05:22.986Z,101668.13
2022-10-11T09:08:22.204Z,101667.22
2022-10-11T09:10:59.599Z,101659.88
2022-10-11T09:13:51.898Z,101664.53
2022-10-11T09:16:36.803Z,101664.41
2022-10-11T09:19:36.267Z,101664.28
2022-10-11T09:22:33.917Z,101663.28
2022-10-11T09:25:18.929Z,101662.44
2022-10-11T09:28:04.871Z,101666.88
2022-10-11T09:30:33.346Z,101660.56
2022-10-11T09:33:09.880Z,101658.63
2022-10-11T09:35:41.729Z,101656.91
2022-10-11T09:38:28.066Z,101656.06
2022-10-11T09:41:20.205Z,101655.06
2022-10-11T09:43:49.939Z,101655.91
2022-10-11T09:46:37.368Z,101646.97
2022-10-11T09:49:09.025Z,101649.53
2022-10-11T09:51:36.794Z,101654.06
2022-10-11T09:54:07.010Z,101647.81
2022-10-11T09:56:40.843Z,101649.53
2022-10-11T09:59:32.032Z,101650.38
2022-10-11T10:02:14.976Z,101649.53
2022-10-11T10:04:54.541Z,101649.53
2022-10-11T10:07:22.238Z,101649.53
2022-10-11T10:09:50.732Z,101651.97
2022-10-11T10:12:31.420Z,101651.09
2022-10-11T10:15:07.357Z,101655.66
2022-10-11T10:17:36.222Z,101643.88
2022-10-11T10:20:05.684Z,101648.41
2022-10-11T10:22:35.830Z,101655.50
2022-10-11T10:25:08.033Z,101657.34
2022-10-11T10:27:35.610Z,101645.72
2022-10-11T10:30:08.917Z,101656.34
2022-10-11T10:32:44.901Z,101649.25
2022-10-11T10:35:49.719Z,101650.97
2022-10-11T10:38:43.210Z,101644.72
2022-10-11T10:41:12.533Z,101645.56
2022-10-11T10:43:42.152Z,101646.41
2022-10-11T10:46:37.038Z,101646.41
2022-10-11T10:49:52.364Z,101642.00
2022-10-11T10:52:15.402Z,101645.44
2022-10-11T10:55:19.955Z,101646.31
2022-10-11T10:57:50.170Z,101633.78
2022-10-11T11:00:23.462Z,101639.06
2022-10-11T11:02:57.200Z,101638.19
2022-10-11T11:05:27.592Z,101642.59
2022-10-11T11:08:13.163Z,101637.34
2022-10-11T11:11:02.262Z,101638.19
2022-10-11T11:13:45.219Z,101637.19
2022-10-11T11:16:20.871Z,101634.50
2022-10-11T11:18:57.033Z,101624.69
2022-10-11T11:21:42.803Z,101627.41
2022-10-11T11:24:52.305Z,101624.56
2022-10-11T11:27:44.287Z,101625.41
2022-10-11T11:30:21.355Z,101622.72
2022-10-11T11:33:19.281Z,101623.72
2022-10-11T11:35:52.776Z,101621.00
2022-10-11T11:38:34.030Z,101612.91
2022-10-11T11:41:06.283Z,101610.34
2022-10-11T11:44:02.043Z,101615.75
2022-10-11T11:46:35.697Z,101609.47
2022-10-11T11:49:16.140Z,101611.22
2022-10-11T11:51:46.432Z,101610.34
2022-10-11T11:54:51.021Z,101608.63
2022-10-11T11:57:42.317Z,101608.63
2022-10-11T12:00:23.611Z,101604.22
2022-10-11T12:03:03.374Z,101601.38
2022-10-11T12:05:34.772Z,101602.25
2022-10-11T12:08:26.084Z,101601.38
2022-10-11T12:10:54.921Z,101604.97
2022-10-11T12:13:32.192Z,101606.66
2022-10-11T12:16:14.557Z,101601.25
2022-10-11T12:18:57.155Z,101602.97
2022-10-11T12:21:39.870Z,101602.09
2022-10-11T12:24:24.510Z,101608.22
2022-10-11T12:26:57.889Z,101602.09
2022-10-11T12:29:42.837Z,101602.81
2022-10-11T12:32:11.250Z,101601.97
2022-10-11T12:34:45.365Z,101602.81
2022-10-11T12:37:18.890Z,101599.16
2022-10-11T12:39:55.934Z,101596.56
2022-10-11T12:42:35.234Z,101599.25
2022-10-11T12:45:12.312Z,101599.16
2022-10-11T12:47:59.902Z,101591.03
2022-10-11T12:51:03.203Z,101598.41
2022-10-11T12:53:37.257Z,101590.47
2022-10-11T12:56:17.890Z,101587.88
2022-10-11T12:58:48.194Z,101580.78
2022-10-11T13:01:22.484Z,101585.31
2022-10-11T13:03:53.200Z,101581.03
2022-10-11T13:06:26.067Z,101579.22
2022-10-11T13:09:01.282Z,101577.38
2022-10-11T13:11:32.798Z,101568.44
2022-10-11T13:14:17.514Z,101564.72
2022-10-11T13:16:50.013Z,101573.69
2022-10-11T13:19:22.992Z,101568.28
2022-10-11T13:21:54.706Z,101569.97
2022-10-11T13:24:23.186Z,101569.97
2022-10-11T13:26:54.436Z,101569.13
2022-10-11T13:29:35.554Z,101569.97
2022-10-11T13:32:07.251Z,101570.84
2022-10-11T13:34:39.420Z,101558.34
2022-10-11T13:37:08.228Z,101562.63
2022-10-11T13:39:38.470Z,101558.34
2022-10-11T13:42:10.846Z,101561.88
2022-10-11T13:44:39.848Z,101556.38
2022-10-11T13:47:11.452Z,101562.63
2022-10-11T13:49:46.157Z,101553.66
2022-10-11T13:52:24.215Z,101558.06
2022-10-11T13:54:57.785Z,101557.06
2022-10-11T13:57:35.829Z,101554.50
2022-10-11T14:00:15.780Z,101556.22
2022-10-11T14:03:14.998Z,101542.72
2022-10-11T14:05:45.087Z,101553.50
2022-10-11T14:08:55.336Z,101552.50
2022-10-11T14:11:35.352Z,101557.91
2022-10-11T14:14:29.914Z,101548.13
2022-10-11T14:17:04.853Z,101549.69
2022-10-11T14:19:32.546Z,101545.28
2022-10-11T14:21:59.827Z,101541.72
2022-10-11T14:24:27.120Z,101542.44
2022-10-11T14:26:56.495Z,101542.44
2022-10-11T14:29:33.531Z,101540.72
2022-10-11T14:32:07.804Z,101537.06
2022-10-11T14:34:35.735Z,101533.50
2022-10-11T14:37:03.561Z,101533.50
2022-10-11T14:39:32.554Z,101535.31
2022-10-11T14:42:00.013Z,101538.75
2022-10-11T14:44:27.322Z,101537.06
2022-10-11T14:46:55.077Z,101533.50
2022-10-11T14:49:25.559Z,101537.06
2022-10-11T14:51:54.823Z,101533.34
2022-10-11T14:54:24.965Z,101526.25
2022-10-11T14:56:54.181Z,101530.81
2022-10-11T14:59:26.909Z,101529.91
2022-10-11T15:01:56.131Z,101528.09
2022-10-11T15:04:26.919Z,101530.81
2022-10-11T16:04:19.160Z,101529.06
2022-10-11T16:59:57.702Z,101534.72
2022-10-11T17:02:30.022Z,101524.78
2022-10-11T17:04:59.760Z,101530.16
2022-10-11T17:07:27.906Z,101528.31
2022-10-11T17:09:55.317Z,101527.47
2022-10-11T17:12:24.083Z,101534.44
2022-10-11T17:14:51.468Z,101531.91
2022-10-11T17:17:19.358Z,101532.75
2022-10-11T17:19:47.717Z,101532.75
2022-10-11T17:22:18.001Z,101531.16
2022-10-11T17:24:45.529Z,101537.56
2022-10-11T17:27:13.066Z,101538.69
2022-10-11T17:29:48.024Z,101539.81
2022-10-11T17:32:15.257Z,101541.78
2022-10-11T17:34:44.849Z,101546.34
2022-10-11T17:37:12.703Z,101551.00
2022-10-11T17:39:40.286Z,101553.84
2022-10-11T17:42:07.680Z,101551.16
2022-10-11T17:44:35.978Z,101559.09
2022-10-11T17:47:03.758Z,101560.84
2022-10-11T17:49:31.060Z,101558.00
2022-10-11T17:51:58.348Z,101561.41
2022-10-11T17:54:28.520Z,101560.53
2022-10-11T17:56:55.860Z,101563.13
2022-10-11T17:59:30.513Z,101560.28
2022-10-11T18:01:58.656Z,101567.38
2022-10-11T18:04:30.566Z,101565.66
2022-10-11T18:06:57.895Z,101566.25
2022-10-11T18:09:25.267Z,101564.41
2022-10-11T18:11:52.806Z,101558.00
2022-10-11T18:14:20.790Z,101566.09
2022-10-11T18:16:48.174Z,101565.16
2022-10-11T18:19:21.195Z,101573.94
2022-10-11T18:21:50.942Z,101574.94
2022-10-11T18:24:19.004Z,101568.53
2022-10-11T18:26:47.300Z,101573.94
2022-10-11T18:29:15.121Z,101567.69
2022-10-11T18:31:42.889Z,101567.69
2022-10-11T18:34:12.966Z,101580.34
2022-10-11T18:36:40.245Z,101572.25
2022-10-11T18:39:09.485Z,101580.34
2022-10-11T18:41:39.100Z,101572.25
2022-10-11T18:44:09.107Z,101584.75
2022-10-11T18:46:36.688Z,101580.19
2022-10-11T18:49:04.212Z,101575.94
2022-10-11T18:51:34.483Z,101590.13
2022-10-11T18:54:02.263Z,101585.47
2022-10-11T18:56:31.158Z,101585.47
2022-10-11T18:58:58.918Z,101588.19
2022-10-11T19:01:32.512Z,101589.13
2022-10-11T19:04:01.575Z,101588.19
2022-10-11T19:06:32.183Z,101586.44
2022-10-11T19:09:02.773Z,101589.03
2022-10-11T19:11:30.645Z,101589.88
2022-10-11T19:14:01.111Z,101587.19
2022-10-11T19:16:29.830Z,101588.19
2022-10-11T19:18:57.477Z,101580.06
2022-10-11T19:21:24.967Z,101589.03
2022-10-11T19:23:52.592Z,101589.03
2022-10-11T19:26:29.264Z,101592.56
2022-10-11T19:29:02.047Z,101589.88
2022-10-11T19:31:30.487Z,101583.63
2022-10-11T19:33:58.258Z,101592.44
2022-10-11T19:36:25.981Z,101586.31
2022-10-11T19:38:57.458Z,101590.72
2022-10-11T19:41:26.212Z,101592.56
2022-10-11T19:43:54.394Z,101589.88
2022-10-11T19:49:10.298Z,101590.88
2022-10-11T19:51:38.226Z,101591.56
2022-10-11T19:54:10.899Z,101597.13
2022-10-11T19:56:38.642Z,101596.13
2022-10-11T19:59:08.947Z,101601.53
2022-10-11T20:01:37.103Z,101596.28
2022-10-11T20:04:22.621Z,101601.53
2022-10-11T20:06:57.955Z,101605.91
2022-10-11T20:09:29.891Z,101598.97
2022-10-11T20:11:58.169Z,101606.06
2022-10-11T20:14:25.764Z,101599.81
2022-10-11T20:16:53.159Z,101603.38
2022-10-11T20:19:29.329Z,101609.78
2022-10-11T20:21:58.014Z,101607.06
2022-10-11T20:24:27.530Z,101616.88
2022-10-11T20:26:55.493Z,101617.88
2022-10-11T20:29:24.706Z,101616.88
2022-10-11T20:31:52.052Z,101625.81
2022-10-11T20:34:19.347Z,101631.38
2022-10-11T20:36:49.064Z,101636.63
2022-10-11T20:39:16.922Z,101638.47
2022-10-11T20:41:44.298Z,101636.63
2022-10-11T20:44:13.210Z,101638.59
2022-10-11T20:46:40.668Z,101644.72
2022-10-11T20:49:35.621Z,101642.00
2022-10-11T20:52:02.961Z,101651.81
2022-10-11T20:54:30.718Z,101649.25
2022-10-11T20:56:59.262Z,101656.34
2022-10-11T20:59:29.182Z,101650.13
2022-10-11T21:01:56.488Z,101650.97
2022-10-11T21:04:23.935Z,101651.81
2022-10-11T21:06:55.610Z,101652.66
2022-10-11T21:09:26.042Z,101646.41
2022-10-11T21:11:53.332Z,101647.25
2022-10-11T21:14:20.632Z,101653.66
2022-10-11T21:16:47.890Z,101647.25
2022-10-11T21:19:15.901Z,101647.25
2022-10-11T21:21:46.415Z,101648.25
2022-10-11T21:24:15.875Z,101653.66
2022-10-11T21:26:43.157Z,101656.34
2022-10-11T21:29:10.489Z,101649.13
2022-10-11T21:31:37.823Z,101646.41
2022-10-11T21:34:06.772Z,101643.72
2022-10-11T21:36:34.323Z,101645.44
2022-10-11T21:39:01.611Z,101641.88
2022-10-11T21:41:30.167Z,101651.69
2022-10-11T21:43:58.230Z,101643.59
2022-10-11T21:47:04.701Z,101639.06
2022-10-11T21:49:21.113Z,101649.69
2022-10-11T21:51:48.496Z,101657.09
2022-10-11T21:54:17.912Z,101656.09
2022-10-11T21:56:45.279Z,101661.50
2022-10-11T21:59:12.895Z,101657.09
2022-10-11T22:01:41.208Z,101657.09
2022-10-11T22:04:08.819Z,101658.94
2022-10-11T22:06:37.322Z,101662.50
2022-10-11T22:09:05.743Z,101657.09
2022-10-11T22:11:33.033Z,101660.66
2022-10-11T22:14:00.434Z,101653.53
2022-10-11T22:16:27.682Z,101649.00
2022-10-11T22:18:54.958Z,101662.50
2022-10-11T22:21:23.644Z,101658.06
2022-10-11T22:23:52.892Z,101651.81
2022-10-11T22:26:25.790Z,101658.06
2022-10-11T22:28:53.520Z,101660.75
2022-10-11T22:31:22.219Z,101654.50
2022-10-11T22:33:53.710Z,101648.16
2022-10-11T22:36:21.188Z,101647.25
2022-10-11T22:38:48.397Z,101649.25
2022-10-11T22:41:15.603Z,101647.41
2022-10-11T22:43:43.352Z,101640.16
2022-10-11T22:46:10.780Z,101635.75
2022-10-11T22:48:38.081Z,101641.16
2022-10-11T22:51:05.451Z,101639.31
2022-10-11T22:53:32.991Z,101638.47
2022-10-11T22:56:00.391Z,101635.75
2022-10-11T22:58:27.722Z,101643.00
2022-10-11T23:00:55.026Z,101643.88
2022-10-11T23:03:22.265Z,101641.31
2022-10-11T23:05:57.306Z,101646.72
2022-10-11T23:08:24.931Z,101640.44
2022-10-11T23:10:52.615Z,101644.97
2022-10-11T23:13:20.174Z,101646.81
2022-10-11T23:15:47.868Z,101647.81
2022-10-11T23:18:16.859Z,101655.78
2022-10-11T23:20:44.278Z,101648.66
2022-10-11T23:23:11.546Z,101654.06
2022-10-11T23:25:38.808Z,101652.38
2022-10-11T23:28:06.061Z,101654.22
2022-10-11T23:30:33.352Z,101657.03
2022-10-11T23:33:00.671Z,101655.06
2022-10-11T23:35:27.874Z,101658.75
2022-10-11T23:37:55.118Z,101658.88
2022-10-11T23:40:22.354Z,101676.78
2022-10-11T23:42:49.630Z,101670.53
2022-10-11T23:45:16.912Z,101668.81
2022-10-11T23:47:44.175Z,101665.28
2022-10-11T23:50:11.557Z,101663.41
2022-10-11T23:52:38.793Z,101668.69
2022-10-11T23:55:06.216Z,101659.88
2022-10-11T23:57:33.886Z,101668.97
